Weather at Caia Airport

Public forecast

Using degrees Celsius for public forecast. Weather courtesy of forecast.io.

Closest aviation weather report (METAR) to Caia Airport

Report is more than 6 hours old.

Closest report is Quelimane Airport, 87.7 nm (162.5 km) E.

2022/11/14 15:00 (retrieved 2 years ago)

FQQL 141500Z 18010KT 9999 BKN018 SCT100 29/24 Q1013

Closest aviation forecast (TAF) to Caia Airport

Forecast is more than 12 hours old.

Closest forecast is Quelimane Airport, 87.7 nm (162.5 km) E.

2023/02/22 18:00 (retrieved 1 year ago)

TAF FQQL 221600Z 2218/2318 24008KT 9999 SCT018 FEW030CB TX32/2313Z TN25/2303Z PROB30 TEMPO 2219/2300 5000 TSRA FEW025CB BECMG 2300/2302 28010KT TEMPO 2305/2313 5000 -TSRA FEW025CB BECMG 2315/2317 02008KT